Time;durP1;ratioP1;P1;durP2;ratioP2;P2;SDS_P1;SDS_P2;PMS_P1;PMS_P2;Temp;Humidity;BMP_temperature;BMP_pressure;BME280_temperature;BME280_humidity;BME280_pressure;Samples;Min_cycle;Max_cycle;Signal;HPM_P1;HPM_P2
2022/12/25 00:00:51;;;;;;;6.23;5.17;;;;;;;;;;5048184;28;20229;-30
2022/12/25 00:03:18;;;;;;;8.30;5.23;;;;;;;;;;5048648;28;20676;-28
2022/12/25 00:05:45;;;;;;;7.40;5.23;;;;;;;;;;5053068;28;20210;-28
2022/12/25 00:08:14;;;;;;;8.80;6.70;;;;;;;;;;5043635;28;20206;-30
2022/12/25 00:10:41;;;;;;;5.90;4.70;;;;;;;;;;5052094;28;20220;-29
2022/12/25 00:13:08;;;;;;;7.30;5.23;;;;;;;;;;5045863;28;20198;-30
2022/12/25 00:15:35;;;;;;;7.43;5.03;;;;;;;;;;5052524;28;20446;-28
2022/12/25 00:18:02;;;;;;;6.67;4.70;;;;;;;;;;5053937;28;20621;-30
2022/12/25 00:20:30;;;;;;;8.53;5.27;;;;;;;;;;5052510;28;20213;-29
2022/12/25 00:22:57;;;;;;;8.80;5.07;;;;;;;;;;5042394;28;20202;-31
2022/12/25 00:25:25;;;;;;;8.03;5.33;;;;;;;;;;5051965;28;20217;-30
2022/12/25 00:27:52;;;;;;;7.27;5.10;;;;;;;;;;5047063;28;20272;-28
2022/12/25 00:30:20;;;;;;;8.70;5.10;;;;;;;;;;5051832;28;20209;-28
2022/12/25 00:32:47;;;;;;;8.03;5.80;;;;;;;;;;5052367;28;20660;-29
2022/12/25 00:35:14;;;;;;;6.47;4.83;;;;;;;;;;5047487;28;20202;-28
2022/12/25 00:37:41;;;;;;;6.00;4.87;;;;;;;;;;5051273;28;20226;-31
2022/12/25 00:40:08;;;;;;;5.30;4.80;;;;;;;;;;5051663;28;20397;-31
2022/12/25 00:42:36;;;;;;;6.43;4.90;;;;;;;;;;5046278;28;20225;-30
2022/12/25 00:45:04;;;;;;;7.53;5.37;;;;;;;;;;5050426;28;20221;-30
2022/12/25 00:47:31;;;;;;;7.80;5.43;;;;;;;;;;5048972;28;20652;-31
2022/12/25 00:49:58;;;;;;;6.37;5.33;;;;;;;;;;5051994;28;20206;-28
2022/12/25 00:52:25;;;;;;;7.93;4.93;;;;;;;;;;5048573;28;20543;-30
2022/12/25 00:54:53;;;;;;;6.27;5.40;;;;;;;;;;5048433;28;20214;-28
2022/12/25 00:57:20;;;;;;;8.43;5.47;;;;;;;;;;5047135;28;20229;-30
2022/12/25 00:59:48;;;;;;;7.63;4.57;;;;;;;;;;5049908;28;20209;-29
2022/12/25 01:02:24;;;;;;;7.33;4.90;;;;;;;;;;5049114;28;20226;-28
2022/12/25 01:04:52;;;;;;;6.47;4.93;;;;;;;;;;5046780;28;20202;-28
2022/12/25 01:07:19;;;;;;;8.13;5.57;;;;;;;;;;5047775;28;20195;-30
2022/12/25 01:12:32;;;;;;;6.53;5.03;;;;;;;;;;5045917;28;20220;-28
2022/12/25 01:15:01;;;;;;;9.77;5.17;;;;;;;;;;5050325;28;20213;-28
2022/12/25 01:17:28;;;;;;;7.03;4.80;;;;;;;;;;5050483;28;20226;-30
2022/12/25 01:19:55;;;;;;;8.47;5.47;;;;;;;;;;5051455;28;20221;-28
2022/12/25 01:22:23;;;;;;;7.43;4.80;;;;;;;;;;5045321;28;20222;-29
2022/12/25 01:24:50;;;;;;;6.03;4.80;;;;;;;;;;5050877;28;20213;-27
2022/12/25 01:27:17;;;;;;;6.73;4.80;;;;;;;;;;5046105;28;20194;-30
2022/12/25 01:29:45;;;;;;;8.13;5.17;;;;;;;;;;5049244;28;20652;-30
2022/12/25 01:32:14;;;;;;;7.47;4.90;;;;;;;;;;5050713;28;20237;-31
2022/12/25 01:34:41;;;;;;;7.53;4.73;;;;;;;;;;5051346;28;20202;-27
2022/12/25 01:37:08;;;;;;;6.50;5.03;;;;;;;;;;5047382;28;20230;-31
2022/12/25 01:39:35;;;;;;;8.00;5.17;;;;;;;;;;5049807;28;20208;-28
2022/12/25 01:42:02;;;;;;;6.53;5.37;;;;;;;;;;5046204;28;20232;-30
2022/12/25 01:44:48;;;;;;;13.67;5.67;;;;;;;;;;5049167;28;20217;-28
2022/12/25 01:47:18;;;;;;;7.93;5.30;;;;;;;;;;5048910;28;20213;-28
2022/12/25 01:49:47;;;;;;;5.73;5.13;;;;;;;;;;5050852;28;20206;-30
2022/12/25 01:52:16;;;;;;;7.33;5.37;;;;;;;;;;5045119;28;20260;-31
2022/12/25 01:54:44;;;;;;;8.60;4.80;;;;;;;;;;5049893;28;20220;-29
2022/12/25 01:57:14;;;;;;;7.37;5.47;;;;;;;;;;5049172;28;20584;-30
2022/12/25 01:59:41;;;;;;;7.37;4.60;;;;;;;;;;5047193;28;20202;-31
2022/12/25 02:02:08;;;;;;;6.70;5.03;;;;;;;;;;5052123;28;20233;-29
2022/12/25 02:04:38;;;;;;;6.63;5.40;;;;;;;;;;5052500;28;20202;-28
2022/12/25 02:07:07;;;;;;;9.07;4.90;;;;;;;;;;5044712;28;20250;-31
2022/12/25 02:09:34;;;;;;;8.43;5.37;;;;;;;;;;5048143;28;20196;-29
2022/12/25 02:12:01;;;;;;;8.50;5.87;;;;;;;;;;5043643;28;20241;-30
2022/12/25 02:14:30;;;;;;;6.20;4.90;;;;;;;;;;5048332;28;20210;-30
2022/12/25 02:17:03;;;;;;;9.67;5.70;;;;;;;;;;5047679;28;20222;-29
2022/12/25 02:19:35;;;;;;;6.27;4.93;;;;;;;;;;5045013;28;20205;-27
2022/12/25 02:22:07;;;;;;;8.63;5.80;;;;;;;;;;5047520;28;20228;-29
2022/12/25 02:24:52;;;;;;;8.80;5.17;;;;;;;;;;5044609;28;20565;-32
2022/12/25 02:27:25;;;;;;;9.73;5.37;;;;;;;;;;5040063;28;20247;-28
2022/12/25 02:29:59;;;;;;;7.93;5.83;;;;;;;;;;5049083;28;20217;-28
2022/12/25 02:32:28;;;;;;;6.40;5.07;;;;;;;;;;5050064;28;20607;-30
2022/12/25 02:34:59;;;;;;;6.00;5.10;;;;;;;;;;5042132;28;20213;-31
2022/12/25 02:37:28;;;;;;;10.07;4.73;;;;;;;;;;5049667;28;20249;-28
2022/12/25 02:39:58;;;;;;;8.00;4.90;;;;;;;;;;5047207;28;20194;-30
2022/12/25 03:07:31;;;;;;;6.10;4.10;;;;;;;;;;5049133;28;20249;-28
2022/12/25 03:12:50;;;;;;;7.57;4.97;;;;;;;;;;5041146;28;20493;-29
2022/12/25 03:18:06;;;;;;;4.43;4.03;;;;;;;;;;5048051;28;20814;-28
2022/12/25 03:28:50;;;;;;;5.43;3.63;;;;;;;;;;5045501;28;20216;-28
2022/12/25 03:31:24;;;;;;;4.57;3.93;;;;;;;;;;5049178;28;20240;-28
2022/12/25 03:36:51;;;;;;;7.20;4.20;;;;;;;;;;5038296;28;20275;-29
2022/12/25 04:37:20;;;;;;;4.27;2.80;;;;;;;;;;5049082;28;20279;-28
2022/12/25 04:39:49;;;;;;;5.83;3.27;;;;;;;;;;5051509;28;20208;-28
2022/12/25 04:42:16;;;;;;;4.90;3.27;;;;;;;;;;5046091;28;20232;-30
2022/12/25 04:44:43;;;;;;;6.90;3.10;;;;;;;;;;5050655;28;20236;-29
2022/12/25 04:47:10;;;;;;;4.00;3.13;;;;;;;;;;5051706;28;20581;-29
2022/12/25 04:49:37;;;;;;;4.37;3.10;;;;;;;;;;5050965;28;20228;-30
2022/12/25 04:52:05;;;;;;;4.33;2.73;;;;;;;;;;5046506;28;20237;-31
2022/12/25 04:54:32;;;;;;;3.70;2.70;;;;;;;;;;5048518;28;20209;-30
2022/12/25 04:57:00;;;;;;;4.33;3.00;;;;;;;;;;5047363;28;20206;-30
2022/12/25 04:59:27;;;;;;;3.07;2.83;;;;;;;;;;5052114;28;20419;-29
2022/12/25 05:01:54;;;;;;;4.00;3.10;;;;;;;;;;5052605;28;20224;-28
2022/12/25 05:04:22;;;;;;;2.90;2.53;;;;;;;;;;5052905;28;20561;-28
2022/12/25 05:06:49;;;;;;;5.50;3.13;;;;;;;;;;5044836;28;20218;-28
2022/12/25 05:09:16;;;;;;;3.40;3.00;;;;;;;;;;5047761;28;20209;-29
2022/12/25 05:11:43;;;;;;;2.60;2.40;;;;;;;;;;5048932;28;20227;-30
2022/12/25 05:14:11;;;;;;;4.27;2.77;;;;;;;;;;5051493;28;20210;-27
2022/12/25 05:16:38;;;;;;;4.33;3.17;;;;;;;;;;5050790;28;20214;-31
2022/12/25 05:19:06;;;;;;;4.13;3.30;;;;;;;;;;5051580;28;20222;-29
2022/12/25 05:21:33;;;;;;;5.50;2.77;;;;;;;;;;5046521;28;20229;-30
2022/12/25 05:24:00;;;;;;;5.03;2.70;;;;;;;;;;5049534;28;20412;-30
2022/12/25 05:26:27;;;;;;;4.83;3.00;;;;;;;;;;5048490;28;20206;-28
2022/12/25 05:28:54;;;;;;;3.43;3.03;;;;;;;;;;5049680;28;20194;-31
2022/12/25 05:31:23;;;;;;;3.20;2.80;;;;;;;;;;5050878;28;20309;-32
2022/12/25 05:33:50;;;;;;;3.27;2.87;;;;;;;;;;5051355;28;20198;-29
2022/12/25 05:36:17;;;;;;;2.70;2.50;;;;;;;;;;5044885;28;20210;-30
2022/12/25 05:38:45;;;;;;;2.67;2.43;;;;;;;;;;5050469;28;20791;-30
2022/12/25 05:41:12;;;;;;;2.80;2.50;;;;;;;;;;5051333;28;20225;-30
2022/12/25 05:43:39;;;;;;;2.97;2.77;;;;;;;;;;5044562;28;20205;-29
2022/12/25 05:46:06;;;;;;;2.83;2.40;;;;;;;;;;5050872;28;20194;-27
2022/12/25 05:48:36;;;;;;;2.97;2.50;;;;;;;;;;5050276;28;20195;-31
2022/12/25 05:51:07;;;;;;;3.90;3.50;;;;;;;;;;5046858;28;20237;-27
2022/12/25 05:53:34;;;;;;;6.67;3.40;;;;;;;;;;5048132;28;20201;-28
2022/12/25 05:56:02;;;;;;;4.33;3.37;;;;;;;;;;5050785;28;20577;-30
2022/12/25 05:58:29;;;;;;;2.90;2.67;;;;;;;;;;5042683;28;20284;-30
2022/12/25 06:00:56;;;;;;;2.67;2.47;;;;;;;;;;5046940;28;20221;-29
2022/12/25 06:03:24;;;;;;;3.57;2.70;;;;;;;;;;5050026;28;20198;-30
2022/12/25 06:05:52;;;;;;;3.20;2.90;;;;;;;;;;5044587;28;20214;-29
2022/12/25 06:08:20;;;;;;;2.50;2.30;;;;;;;;;;5047346;28;20198;-28
2022/12/25 06:10:47;;;;;;;4.10;2.90;;;;;;;;;;5050158;28;20222;-29
2022/12/25 06:13:14;;;;;;;3.93;2.60;;;;;;;;;;5044844;28;20205;-31
2022/12/25 06:15:41;;;;;;;4.67;2.70;;;;;;;;;;5049704;28;20208;-29
2022/12/25 06:18:09;;;;;;;3.30;2.93;;;;;;;;;;5050202;28;20555;-29
2022/12/25 06:20:36;;;;;;;3.50;2.77;;;;;;;;;;5049938;28;20202;-29
2022/12/25 06:23:05;;;;;;;2.67;2.47;;;;;;;;;;5042575;28;20247;-32
2022/12/25 06:25:32;;;;;;;4.30;3.20;;;;;;;;;;5049361;28;20198;-30
2022/12/25 06:27:59;;;;;;;3.80;3.33;;;;;;;;;;5044805;28;20221;-29
2022/12/25 06:30:26;;;;;;;4.97;2.33;;;;;;;;;;5048507;28;20229;-29
2022/12/25 06:32:53;;;;;;;3.20;2.70;;;;;;;;;;5050201;28;20200;-29
2022/12/25 06:35:20;;;;;;;3.53;2.60;;;;;;;;;;5041495;28;20205;-29
2022/12/25 06:37:47;;;;;;;2.60;2.40;;;;;;;;;;5049019;28;20229;-30
2022/12/25 06:40:16;;;;;;;3.03;2.10;;;;;;;;;;5049040;28;20782;-29
2022/12/25 06:42:44;;;;;;;4.43;2.40;;;;;;;;;;5044287;28;20209;-32
2022/12/25 06:45:11;;;;;;;3.00;2.70;;;;;;;;;;5048543;28;20205;-30
2022/12/25 06:47:38;;;;;;;2.20;2.00;;;;;;;;;;5048920;28;20641;-31
2022/12/25 06:50:06;;;;;;;3.33;2.37;;;;;;;;;;5049827;28;20194;-28
2022/12/25 06:52:34;;;;;;;3.00;2.50;;;;;;;;;;5040802;28;20271;-30
2022/12/25 06:55:01;;;;;;;2.50;2.30;;;;;;;;;;5048639;28;20228;-30
2022/12/25 06:57:29;;;;;;;3.63;2.30;;;;;;;;;;5045487;28;20202;-31
2022/12/25 06:59:56;;;;;;;2.83;2.20;;;;;;;;;;5047567;28;20208;-30
2022/12/25 07:02:24;;;;;;;2.73;2.53;;;;;;;;;;5049620;28;20229;-30
2022/12/25 07:04:51;;;;;;;4.97;4.13;;;;;;;;;;5048707;28;20229;-30
2022/12/25 07:07:19;;;;;;;5.37;3.47;;;;;;;;;;5043210;28;20593;-32
2022/12/25 07:09:46;;;;;;;2.80;2.60;;;;;;;;;;5049336;28;20218;-29
2022/12/25 07:12:16;;;;;;;3.00;2.70;;;;;;;;;;5040929;28;20245;-30
2022/12/25 07:14:47;;;;;;;2.60;2.40;;;;;;;;;;5046979;28;20206;-29
2022/12/25 07:17:14;;;;;;;3.03;2.73;;;;;;;;;;5050643;28;20205;-29
2022/12/25 07:19:41;;;;;;;3.67;3.00;;;;;;;;;;5050672;28;20220;-28
2022/12/25 07:22:08;;;;;;;2.70;2.50;;;;;;;;;;5045095;28;20228;-31
2022/12/25 07:24:36;;;;;;;4.13;2.80;;;;;;;;;;5046120;28;20656;-32
2022/12/25 07:27:03;;;;;;;2.93;2.63;;;;;;;;;;5046238;28;20281;-31
2022/12/25 07:29:30;;;;;;;4.50;2.90;;;;;;;;;;5046193;28;20210;-30
2022/12/25 07:31:58;;;;;;;5.03;2.93;;;;;;;;;;5050193;28;20226;-29
2022/12/25 07:34:26;;;;;;;3.30;3.00;;;;;;;;;;5051817;28;20212;-29
2022/12/25 07:36:54;;;;;;;3.30;3.00;;;;;;;;;;5048945;28;20216;-29
2022/12/25 07:39:22;;;;;;;2.80;2.60;;;;;;;;;;5049458;28;20232;-29
2022/12/25 07:41:49;;;;;;;3.53;2.73;;;;;;;;;;5046473;28;20234;-29
2022/12/25 07:44:17;;;;;;;3.13;2.60;;;;;;;;;;5047751;28;20216;-27
2022/12/25 07:46:44;;;;;;;4.37;3.60;;;;;;;;;;5049290;28;20206;-29
2022/12/25 07:49:12;;;;;;;4.97;3.30;;;;;;;;;;5051195;28;20202;-29
2022/12/25 07:51:40;;;;;;;5.23;3.20;;;;;;;;;;5041400;28;20226;-29
2022/12/25 07:54:07;;;;;;;3.57;3.00;;;;;;;;;;5048635;28;20206;-29
2022/12/25 07:56:34;;;;;;;4.80;3.00;;;;;;;;;;5047111;28;20380;-26
2022/12/25 07:59:01;;;;;;;3.10;2.83;;;;;;;;;;5041122;28;20223;-29
2022/12/25 08:01:28;;;;;;;5.40;2.83;;;;;;;;;;5050603;28;20225;-29
2022/12/25 08:03:56;;;;;;;3.20;2.60;;;;;;;;;;5051407;28;20198;-27
2022/12/25 08:06:28;;;;;;;3.73;2.60;;;;;;;;;;5042766;28;20201;-28
2022/12/25 08:08:55;;;;;;;3.70;3.23;;;;;;;;;;5049102;28;20285;-29
2022/12/25 08:11:22;;;;;;;3.57;3.13;;;;;;;;;;5043214;28;20710;-28
2022/12/25 08:13:49;;;;;;;3.93;3.40;;;;;;;;;;5047331;28;20305;-27
2022/12/25 08:16:16;;;;;;;4.60;2.93;;;;;;;;;;5051105;28;20576;-28
2022/12/25 08:18:44;;;;;;;3.97;2.83;;;;;;;;;;5049112;28;20222;-27
2022/12/25 08:21:12;;;;;;;5.00;2.90;;;;;;;;;;5045343;28;20225;-30
2022/12/25 08:23:41;;;;;;;3.40;2.40;;;;;;;;;;5050471;28;20661;-28
2022/12/25 08:26:11;;;;;;;2.63;2.43;;;;;;;;;;5054126;28;20206;-27
2022/12/25 08:28:38;;;;;;;3.50;3.00;;;;;;;;;;5040107;28;20202;-29
2022/12/25 08:31:09;;;;;;;3.03;2.47;;;;;;;;;;5050089;28;20237;-29
2022/12/25 08:33:37;;;;;;;10.90;6.83;;;;;;;;;;5055293;28;20194;-28
2022/12/25 08:36:05;;;;;;;4.70;3.53;;;;;;;;;;5051787;28;20209;-29
2022/12/25 08:38:32;;;;;;;3.37;2.87;;;;;;;;;;5048006;28;20426;-28
2022/12/25 08:41:00;;;;;;;3.00;2.70;;;;;;;;;;5054009;28;20218;-28
2022/12/25 08:43:27;;;;;;;3.77;2.50;;;;;;;;;;5043281;28;20220;-27
2022/12/25 08:45:55;;;;;;;4.07;2.93;;;;;;;;;;5042074;28;20202;-29
2022/12/25 08:48:22;;;;;;;3.83;3.30;;;;;;;;;;5054601;28;20198;-30
2022/12/25 08:50:50;;;;;;;3.30;2.60;;;;;;;;;;5048645;28;20225;-28
2022/12/25 08:53:17;;;;;;;2.90;2.60;;;;;;;;;;5049010;28;20202;-29
2022/12/25 08:55:44;;;;;;;3.23;2.53;;;;;;;;;;5055132;28;20220;-27
2022/12/25 08:58:13;;;;;;;4.57;3.03;;;;;;;;;;5049112;28;20206;-29
2022/12/25 09:00:40;;;;;;;4.20;3.00;;;;;;;;;;5046936;28;20230;-29
2022/12/25 09:03:07;;;;;;;3.30;3.00;;;;;;;;;;5054820;28;20684;-29
2022/12/25 09:05:35;;;;;;;4.60;4.20;;;;;;;;;;5053105;28;20202;-28
2022/12/25 09:08:02;;;;;;;3.60;2.67;;;;;;;;;;5050909;28;20454;-27
2022/12/25 09:10:29;;;;;;;5.17;3.17;;;;;;;;;;5053959;28;20205;-29
2022/12/25 09:12:56;;;;;;;7.13;4.37;;;;;;;;;;5047023;28;20217;-27
2022/12/25 09:15:25;;;;;;;12.07;6.90;;;;;;;;;;5047324;28;20209;-29
2022/12/25 09:17:52;;;;;;;11.70;7.47;;;;;;;;;;5054025;28;20198;-29
2022/12/25 09:20:20;;;;;;;6.90;4.80;;;;;;;;;;5042682;28;20246;-30
2022/12/25 09:22:47;;;;;;;5.53;4.17;;;;;;;;;;5051343;28;20443;-29
2022/12/25 09:25:14;;;;;;;5.77;4.00;;;;;;;;;;5053916;28;20194;-30
2022/12/25 09:27:42;;;;;;;5.10;3.90;;;;;;;;;;5047367;28;20201;-26
2022/12/25 09:30:09;;;;;;;5.53;3.70;;;;;;;;;;5051196;28;20205;-28
2022/12/25 09:32:39;;;;;;;3.53;3.23;;;;;;;;;;5054592;28;20232;-30
2022/12/25 09:35:06;;;;;;;6.47;3.27;;;;;;;;;;5054551;28;20224;-27
2022/12/25 09:37:33;;;;;;;3.87;3.40;;;;;;;;;;5050660;28;20198;-30
2022/12/25 09:40:00;;;;;;;6.97;3.73;;;;;;;;;;5054174;28;20228;-30
2022/12/25 09:42:30;;;;;;;6.00;5.37;;;;;;;;;;5046326;28;20222;-30
2022/12/25 09:44:58;;;;;;;4.33;3.47;;;;;;;;;;5040185;28;20244;-28
2022/12/25 09:47:26;;;;;;;4.03;3.63;;;;;;;;;;5055422;28;20758;-28
2022/12/25 09:49:57;;;;;;;4.50;3.80;;;;;;;;;;5054440;28;20204;-28
2022/12/25 09:52:26;;;;;;;4.40;3.83;;;;;;;;;;5045538;28;20234;-28
2022/12/25 09:54:55;;;;;;;4.30;3.60;;;;;;;;;;5051763;28;20218;-29
2022/12/25 09:57:22;;;;;;;6.07;4.10;;;;;;;;;;5047801;28;20202;-30
2022/12/25 09:59:49;;;;;;;4.53;3.97;;;;;;;;;;5052463;28;20847;-29
2022/12/25 10:02:28;;;;;;;3.63;3.30;;;;;;;;;;5052374;28;20225;-29
2022/12/25 10:05:03;;;;;;;5.20;3.70;;;;;;;;;;5046293;28;20701;-27
2022/12/25 10:07:34;;;;;;;4.80;3.60;;;;;;;;;;5051463;28;20206;-28
2022/12/25 10:10:07;;;;;;;4.17;3.40;;;;;;;;;;5050691;28;20198;-30
2022/12/25 10:12:39;;;;;;;3.60;3.30;;;;;;;;;;5049696;28;20229;-30
2022/12/25 10:15:17;;;;;;;4.43;3.30;;;;;;;;;;5050790;28;20230;-28
2022/12/25 10:17:49;;;;;;;3.90;3.50;;;;;;;;;;5048374;28;20220;-29
2022/12/25 10:20:22;;;;;;;3.90;3.50;;;;;;;;;;5042979;28;20213;-30
2022/12/25 10:22:51;;;;;;;7.87;3.90;;;;;;;;;;5048418;28;20208;-28
2022/12/25 10:25:20;;;;;;;11.33;4.10;;;;;;;;;;5052429;28;20202;-27
2022/12/25 10:27:48;;;;;;;7.83;3.93;;;;;;;;;;5046776;28;20308;-29
2022/12/25 10:30:16;;;;;;;5.93;4.67;;;;;;;;;;5047670;28;20541;-27
2022/12/25 10:32:43;;;;;;;5.43;4.00;;;;;;;;;;5051954;28;20217;-29
2022/12/25 10:35:12;;;;;;;3.87;3.43;;;;;;;;;;5042436;28;20203;-29
2022/12/25 10:37:41;;;;;;;7.30;3.53;;;;;;;;;;5051645;28;20293;-28
2022/12/25 10:40:20;;;;;;;4.17;3.47;;;;;;;;;;5051988;28;20229;-28
2022/12/25 10:42:50;;;;;;;10.13;3.90;;;;;;;;;;5048604;28;20202;-30
2022/12/25 10:45:17;;;;;;;4.23;3.83;;;;;;;;;;5051233;28;20206;-28
2022/12/25 10:47:44;;;;;;;4.27;3.33;;;;;;;;;;5052440;28;20675;-29
2022/12/25 10:50:18;;;;;;;4.77;3.50;;;;;;;;;;5052553;28;20588;-30
2022/12/25 10:53:00;;;;;;;4.47;3.20;;;;;;;;;;5045785;28;20320;-28
2022/12/25 10:55:27;;;;;;;4.03;3.63;;;;;;;;;;5050189;28;20222;-31
2022/12/25 10:57:54;;;;;;;6.50;3.73;;;;;;;;;;5049845;28;20201;-30
2022/12/25 11:00:22;;;;;;;7.30;3.47;;;;;;;;;;5051466;28;20225;-30
2022/12/25 11:02:49;;;;;;;4.20;3.47;;;;;;;;;;5052676;28;20799;-29
2022/12/25 11:05:22;;;;;;;5.83;3.50;;;;;;;;;;5052754;28;20213;-30
2022/12/25 11:07:53;;;;;;;5.00;4.60;;;;;;;;;;5049385;28;20202;-27
2022/12/25 11:10:23;;;;;;;5.13;3.40;;;;;;;;;;5050238;28;20541;-30
2022/12/25 11:12:51;;;;;;;9.57;3.57;;;;;;;;;;5044544;28;20210;-30
2022/12/25 11:15:31;;;;;;;3.50;3.13;;;;;;;;;;5047631;28;20209;-28
2022/12/25 11:17:58;;;;;;;3.03;2.73;;;;;;;;;;5045877;28;20228;-29
2022/12/25 11:20:25;;;;;;;2.77;2.40;;;;;;;;;;5042118;28;20684;-29
2022/12/25 11:22:53;;;;;;;2.83;2.40;;;;;;;;;;5042619;28;20649;-28
2022/12/25 11:25:23;;;;;;;3.47;2.50;;;;;;;;;;5051253;28;20213;-27
2022/12/25 11:27:57;;;;;;;3.57;2.80;;;;;;;;;;5045265;28;20209;-29
2022/12/25 11:30:24;;;;;;;3.53;2.60;;;;;;;;;;5043604;28;20201;-28
2022/12/25 11:32:54;;;;;;;3.70;2.73;;;;;;;;;;5048219;28;20206;-30
2022/12/25 11:35:22;;;;;;;4.37;2.63;;;;;;;;;;5036212;28;20718;-28
2022/12/25 11:37:50;;;;;;;4.83;2.73;;;;;;;;;;5045032;28;20202;-29
2022/12/25 11:40:19;;;;;;;4.47;2.80;;;;;;;;;;5051389;28;20232;-29
2022/12/25 11:42:50;;;;;;;3.80;3.20;;;;;;;;;;5040922;28;20210;-28
2022/12/25 11:45:19;;;;;;;3.97;2.97;;;;;;;;;;5048348;28;20201;-28
2022/12/25 11:47:49;;;;;;;3.37;2.67;;;;;;;;;;5052360;28;20213;-28
2022/12/25 11:50:22;;;;;;;6.73;3.47;;;;;;;;;;5051619;28;20741;-29
2022/12/25 11:52:50;;;;;;;2.93;2.57;;;;;;;;;;5041284;28;20198;-26
2022/12/25 11:55:18;;;;;;;3.10;2.80;;;;;;;;;;5048553;28;20276;-27
2022/12/25 11:57:47;;;;;;;4.07;2.50;;;;;;;;;;5041314;28;20641;-28
2022/12/25 12:00:16;;;;;;;5.23;2.73;;;;;;;;;;5047615;28;20229;-27
2022/12/25 12:02:45;;;;;;;5.00;3.17;;;;;;;;;;5055658;28;20214;-28
2022/12/25 12:05:15;;;;;;;4.03;3.10;;;;;;;;;;5056153;28;20205;-29
2022/12/25 12:07:51;;;;;;;3.67;3.10;;;;;;;;;;5051905;28;20198;-29
2022/12/25 12:10:19;;;;;;;4.87;2.60;;;;;;;;;;5054568;28;20194;-28
2022/12/25 12:12:50;;;;;;;2.70;2.50;;;;;;;;;;5045348;28;20218;-28
2022/12/25 12:15:22;;;;;;;3.40;2.60;;;;;;;;;;5048539;28;20222;-29
2022/12/25 12:17:49;;;;;;;4.93;2.60;;;;;;;;;;5055548;28;20194;-27
2022/12/25 12:20:28;;;;;;;3.43;2.40;;;;;;;;;;5054951;28;20228;-29
2022/12/25 12:22:55;;;;;;;4.13;2.23;;;;;;;;;;5051685;28;20202;-27
2022/12/25 12:25:22;;;;;;;2.57;2.30;;;;;;;;;;5054887;28;20202;-29
2022/12/25 12:27:53;;;;;;;3.53;2.37;;;;;;;;;;5045267;28;20206;-30
2022/12/25 12:30:26;;;;;;;4.10;2.23;;;;;;;;;;5049100;28;20209;-30
2022/12/25 12:32:57;;;;;;;2.83;2.40;;;;;;;;;;5055290;28;20210;-28
2022/12/25 12:35:26;;;;;;;2.30;2.07;;;;;;;;;;5034804;28;20227;-28
2022/12/25 12:37:54;;;;;;;4.23;2.70;;;;;;;;;;5050461;28;20212;-29
2022/12/25 12:40:24;;;;;;;2.33;1.90;;;;;;;;;;5054777;28;20218;-30
2022/12/25 12:42:51;;;;;;;4.60;2.47;;;;;;;;;;5041893;28;20214;-28
2022/12/25 12:45:19;;;;;;;2.47;2.27;;;;;;;;;;5050758;28;20210;-26
2022/12/25 12:47:49;;;;;;;2.70;2.40;;;;;;;;;;5054852;28;20202;-28
2022/12/25 12:50:33;;;;;;;2.47;2.17;;;;;;;;;;5051894;28;20190;-28
2022/12/25 12:53:04;;;;;;;3.70;2.20;;;;;;;;;;5052203;28;20684;-28
2022/12/25 12:55:32;;;;;;;3.70;2.70;;;;;;;;;;5052135;28;20209;-26
2022/12/25 12:58:00;;;;;;;3.93;2.33;;;;;;;;;;5045499;28;20198;-29
2022/12/25 13:00:29;;;;;;;2.70;1.93;;;;;;;;;;5053305;28;20218;-30
2022/12/25 13:03:08;;;;;;;2.47;1.70;;;;;;;;;;5054330;28;20205;-29
2022/12/25 13:05:38;;;;;;;4.50;2.10;;;;;;;;;;5049214;28;20744;-29
2022/12/25 13:08:12;;;;;;;3.63;2.00;;;;;;;;;;5048974;28;20209;-27
2022/12/25 13:10:41;;;;;;;2.20;2.00;;;;;;;;;;5052657;28;20217;-30
2022/12/25 13:13:14;;;;;;;3.43;1.93;;;;;;;;;;5043848;28;20213;-29
2022/12/25 13:15:41;;;;;;;3.43;2.10;;;;;;;;;;5049077;28;20229;-27
2022/12/25 13:18:12;;;;;;;1.93;1.83;;;;;;;;;;5054051;28;20213;-28
2022/12/25 13:20:42;;;;;;;2.80;2.00;;;;;;;;;;5049506;28;20236;-28
2022/12/25 13:23:21;;;;;;;4.87;2.37;;;;;;;;;;5052840;28;20205;-29
2022/12/25 13:25:52;;;;;;;2.10;1.90;;;;;;;;;;5054439;28;20510;-29
2022/12/25 13:28:24;;;;;;;2.13;1.93;;;;;;;;;;5047638;28;20570;-30
2022/12/25 13:30:51;;;;;;;2.20;2.00;;;;;;;;;;5051387;28;20226;-26
2022/12/25 13:33:20;;;;;;;2.97;2.07;;;;;;;;;;5052477;28;20198;-27
2022/12/25 13:35:47;;;;;;;2.80;2.23;;;;;;;;;;5053757;28;20213;-28
2022/12/25 13:38:16;;;;;;;2.27;2.07;;;;;;;;;;5042529;28;20214;-29
2022/12/25 13:42:04;;;;;;;2.10;1.90;;;;;;;;;;5049906;28;20233;-28
2022/12/25 13:43:36;;;;;;;3.60;1.97;;;;;;;;;;5038780;28;20206;-28
2022/12/25 13:46:03;;;;;;;2.47;2.00;;;;;;;;;;5053379;28;20205;-28
2022/12/25 13:48:32;;;;;;;2.70;1.87;;;;;;;;;;5053070;28;20209;-29
2022/12/25 13:51:00;;;;;;;2.03;1.83;;;;;;;;;;5050126;28;20225;-29
2022/12/25 13:53:27;;;;;;;3.40;2.23;;;;;;;;;;5049207;28;20201;-30
2022/12/25 13:55:56;;;;;;;5.40;2.13;;;;;;;;;;5053756;28;20210;-29
2022/12/25 13:58:25;;;;;;;2.90;2.30;;;;;;;;;;5045379;28;20209;-30
2022/12/25 14:00:53;;;;;;;2.37;1.90;;;;;;;;;;5040045;28;20244;-27
2022/12/25 14:03:33;;;;;;;2.00;1.90;;;;;;;;;;5035586;28;20202;-27
2022/12/25 14:06:03;;;;;;;2.40;2.20;;;;;;;;;;5048529;28;20210;-30
2022/12/25 14:08:31;;;;;;;2.30;2.10;;;;;;;;;;5049611;28;20570;-28
2022/12/25 14:10:58;;;;;;;2.73;2.20;;;;;;;;;;5041635;28;20229;-28
2022/12/25 14:13:28;;;;;;;2.70;2.00;;;;;;;;;;5047311;28;20210;-27
2022/12/25 14:15:56;;;;;;;3.97;2.40;;;;;;;;;;5049580;28;20216;-28
2022/12/25 14:18:24;;;;;;;2.77;2.47;;;;;;;;;;5050022;28;20202;-29
2022/12/25 14:20:57;;;;;;;4.13;2.00;;;;;;;;;;5050396;28;20234;-30
2022/12/25 14:23:27;;;;;;;2.50;2.27;;;;;;;;;;5044682;28;20257;-29
2022/12/25 14:25:54;;;;;;;2.53;2.27;;;;;;;;;;5052293;28;20216;-29
2022/12/25 14:28:24;;;;;;;2.40;2.20;;;;;;;;;;5042911;28;20202;-29
2022/12/25 14:30:51;;;;;;;2.33;2.17;;;;;;;;;;5046489;28;20218;-29
2022/12/25 14:33:19;;;;;;;6.30;3.00;;;;;;;;;;5051194;28;20216;-31
2022/12/25 14:35:47;;;;;;;7.70;3.70;;;;;;;;;;5048491;28;20218;-27
2022/12/25 14:38:21;;;;;;;3.70;2.50;;;;;;;;;;5042549;28;20679;-27
2022/12/25 14:40:58;;;;;;;2.63;2.23;;;;;;;;;;5052949;28;20236;-30
2022/12/25 14:43:26;;;;;;;6.87;2.33;;;;;;;;;;5048373;28;20349;-29
2022/12/25 14:45:56;;;;;;;2.90;2.53;;;;;;;;;;5052898;28;20202;-28
2022/12/25 14:48:37;;;;;;;4.73;2.50;;;;;;;;;;5052658;28;20217;-29
2022/12/25 14:51:06;;;;;;;2.40;2.10;;;;;;;;;;5047295;28;20714;-31
2022/12/25 14:53:36;;;;;;;2.40;2.20;;;;;;;;;;5052427;28;20213;-28
2022/12/25 14:56:05;;;;;;;2.67;1.97;;;;;;;;;;5052828;28;20201;-28
2022/12/25 14:58:33;;;;;;;2.83;2.50;;;;;;;;;;5042449;28;20217;-28
2022/12/25 15:01:02;;;;;;;3.23;2.30;;;;;;;;;;5043196;28;20234;-27
2022/12/25 15:03:30;;;;;;;3.87;2.43;;;;;;;;;;5052767;28;20580;-28
2022/12/25 15:05:58;;;;;;;2.43;2.23;;;;;;;;;;5052826;28;20214;-28
2022/12/25 15:08:26;;;;;;;3.60;2.33;;;;;;;;;;5041874;28;20206;-28
2022/12/25 15:10:54;;;;;;;4.47;3.53;;;;;;;;;;5046055;28;20700;-27
2022/12/25 15:13:23;;;;;;;2.90;2.67;;;;;;;;;;5044248;28;20198;-28
2022/12/25 15:15:52;;;;;;;3.00;2.70;;;;;;;;;;5043987;28;20206;-28
2022/12/25 15:18:20;;;;;;;4.00;2.93;;;;;;;;;;5049689;28;20202;-30
2022/12/25 15:20:47;;;;;;;4.63;2.70;;;;;;;;;;5042735;28;20253;-27
2022/12/25 15:23:15;;;;;;;3.70;2.40;;;;;;;;;;5048531;28;20285;-27
2022/12/25 15:25:42;;;;;;;2.90;2.40;;;;;;;;;;5042186;28;20256;-29
2022/12/25 15:28:10;;;;;;;4.97;2.40;;;;;;;;;;5038756;28;20206;-29
2022/12/25 15:30:39;;;;;;;4.33;2.43;;;;;;;;;;5047647;28;20222;-31
2022/12/25 15:33:06;;;;;;;3.03;2.30;;;;;;;;;;5047109;28;20201;-27
2022/12/25 15:35:34;;;;;;;2.60;2.40;;;;;;;;;;5052223;28;20201;-28
2022/12/25 15:38:01;;;;;;;3.80;3.50;;;;;;;;;;5051273;28;20649;-28
2022/12/25 15:40:28;;;;;;;3.77;3.47;;;;;;;;;;5054771;28;20222;-28
2022/12/25 15:42:55;;;;;;;3.00;2.60;;;;;;;;;;5051519;28;20212;-26
2022/12/25 15:45:24;;;;;;;4.27;2.63;;;;;;;;;;5052985;28;20284;-29
2022/12/25 15:47:52;;;;;;;4.23;2.67;;;;;;;;;;5055345;28;20206;-29
2022/12/25 15:50:20;;;;;;;2.93;2.60;;;;;;;;;;5049446;28;20207;-28
2022/12/25 15:52:48;;;;;;;3.33;2.60;;;;;;;;;;5049592;28;20209;-29
2022/12/25 15:55:15;;;;;;;2.40;2.20;;;;;;;;;;5053969;28;20232;-28
2022/12/25 15:57:45;;;;;;;3.47;2.23;;;;;;;;;;5048006;28;20203;-28
2022/12/25 16:00:15;;;;;;;2.87;2.20;;;;;;;;;;5047565;28;20209;-29
2022/12/25 16:02:42;;;;;;;4.13;2.60;;;;;;;;;;5055800;28;20320;-28
2022/12/25 16:05:11;;;;;;;2.30;1.97;;;;;;;;;;5055943;28;20205;-30
2022/12/25 16:07:38;;;;;;;2.70;2.00;;;;;;;;;;5046756;28;20202;-27
2022/12/25 16:10:06;;;;;;;4.17;2.10;;;;;;;;;;5054654;28;20206;-28
2022/12/25 16:12:33;;;;;;;2.07;1.77;;;;;;;;;;5047598;28;20281;-29
2022/12/25 16:15:00;;;;;;;2.10;1.80;;;;;;;;;;5052209;28;20213;-30
2022/12/25 16:17:27;;;;;;;2.40;2.20;;;;;;;;;;5052753;28;20224;-30
2022/12/25 16:19:55;;;;;;;2.00;1.80;;;;;;;;;;5051872;28;20574;-29
2022/12/25 16:22:25;;;;;;;2.07;1.87;;;;;;;;;;5046187;28;20225;-31
2022/12/25 16:24:52;;;;;;;2.60;2.40;;;;;;;;;;5047487;28;20493;-30
2022/12/25 16:27:20;;;;;;;4.60;2.03;;;;;;;;;;5046427;28;20214;-28
2022/12/25 16:29:47;;;;;;;2.47;1.90;;;;;;;;;;5049374;28;20543;-28
2022/12/25 16:32:15;;;;;;;3.50;2.50;;;;;;;;;;5055516;28;20558;-28
2022/12/25 16:34:42;;;;;;;4.07;2.40;;;;;;;;;;5049982;28;20238;-30